sensor_id;sensor_type;location;lat;lon;timestamp;P1;durP1;ratioP1;P2;durP2;ratioP2
69629;SDS011;56857;52.212;5.496;2022-12-20T00:00:51;7.05;;;3.53;;
69629;SDS011;56857;52.212;5.496;2022-12-20T00:03:17;7.50;;;3.92;;
69629;SDS011;56857;52.212;5.496;2022-12-20T00:05:43;7.97;;;3.75;;
69629;SDS011;56857;52.212;5.496;2022-12-20T00:08:09;8.35;;;3.20;;
69629;SDS011;56857;52.212;5.496;2022-12-20T00:10:38;11.15;;;3.42;;
69629;SDS011;56857;52.212;5.496;2022-12-20T00:13:06;7.93;;;3.88;;
69629;SDS011;56857;52.212;5.496;2022-12-20T00:15:32;8.40;;;3.47;;
69629;SDS011;56857;52.212;5.496;2022-12-20T00:17:59;7.20;;;3.20;;
69629;SDS011;56857;52.212;5.496;2022-12-20T00:20:26;8.13;;;3.65;;
69629;SDS011;56857;52.212;5.496;2022-12-20T00:22:53;7.03;;;3.45;;
69629;SDS011;56857;52.212;5.496;2022-12-20T00:25:19;7.72;;;3.30;;
69629;SDS011;56857;52.212;5.496;2022-12-20T00:27:46;7.45;;;3.83;;
69629;SDS011;56857;52.212;5.496;2022-12-20T00:30:15;8.02;;;3.22;;
69629;SDS011;56857;52.212;5.496;2022-12-20T00:32:42;6.15;;;3.28;;
69629;SDS011;56857;52.212;5.496;2022-12-20T00:35:09;6.93;;;3.50;;
69629;SDS011;56857;52.212;5.496;2022-12-20T00:37:36;7.25;;;3.20;;
69629;SDS011;56857;52.212;5.496;2022-12-20T00:40:03;8.45;;;3.90;;
69629;SDS011;56857;52.212;5.496;2022-12-20T00:42:29;6.97;;;3.80;;
69629;SDS011;56857;52.212;5.496;2022-12-20T00:44:55;7.68;;;3.25;;
69629;SDS011;56857;52.212;5.496;2022-12-20T00:47:21;7.70;;;3.35;;
69629;SDS011;56857;52.212;5.496;2022-12-20T00:49:47;6.38;;;3.33;;
69629;SDS011;56857;52.212;5.496;2022-12-20T00:52:13;9.00;;;3.53;;
69629;SDS011;56857;52.212;5.496;2022-12-20T00:54:39;6.20;;;2.80;;
69629;SDS011;56857;52.212;5.496;2022-12-20T00:57:06;7.95;;;3.20;;
69629;SDS011;56857;52.212;5.496;2022-12-20T00:59:32;7.65;;;3.20;;
69629;SDS011;56857;52.212;5.496;2022-12-20T01:01:58;7.18;;;3.10;;
69629;SDS011;56857;52.212;5.496;2022-12-20T01:04:24;10.68;;;3.53;;
69629;SDS011;56857;52.212;5.496;2022-12-20T01:06:51;7.13;;;3.20;;
69629;SDS011;56857;52.212;5.496;2022-12-20T01:09:17;8.35;;;3.33;;
69629;SDS011;56857;52.212;5.496;2022-12-20T01:11:46;7.35;;;3.17;;
69629;SDS011;56857;52.212;5.496;2022-12-20T01:14:13;8.38;;;3.30;;
69629;SDS011;56857;52.212;5.496;2022-12-20T01:16:42;6.88;;;3.30;;
69629;SDS011;56857;52.212;5.496;2022-12-20T01:19:10;9.15;;;3.35;;
69629;SDS011;56857;52.212;5.496;2022-12-20T01:21:39;8.63;;;3.30;;
69629;SDS011;56857;52.212;5.496;2022-12-20T01:24:05;6.60;;;2.83;;
69629;SDS011;56857;52.212;5.496;2022-12-20T01:26:31;8.32;;;3.35;;
69629;SDS011;56857;52.212;5.496;2022-12-20T01:28:58;6.93;;;3.28;;
69629;SDS011;56857;52.212;5.496;2022-12-20T01:31:25;9.35;;;3.40;;
69629;SDS011;56857;52.212;5.496;2022-12-20T01:33:53;7.07;;;3.80;;
69629;SDS011;56857;52.212;5.496;2022-12-20T01:36:20;6.85;;;2.90;;
69629;SDS011;56857;52.212;5.496;2022-12-20T01:38:48;9.30;;;3.58;;
69629;SDS011;56857;52.212;5.496;2022-12-20T01:41:18;7.35;;;3.20;;
69629;SDS011;56857;52.212;5.496;2022-12-20T01:46:16;8.93;;;3.80;;
69629;SDS011;56857;52.212;5.496;2022-12-20T01:48:45;8.25;;;3.40;;
69629;SDS011;56857;52.212;5.496;2022-12-20T01:51:26;7.75;;;3.80;;
69629;SDS011;56857;52.212;5.496;2022-12-20T01:53:55;9.40;;;3.92;;
69629;SDS011;56857;52.212;5.496;2022-12-20T01:56:26;7.85;;;3.65;;
69629;SDS011;56857;52.212;5.496;2022-12-20T01:58:52;8.88;;;3.75;;
69629;SDS011;56857;52.212;5.496;2022-12-20T02:01:21;8.90;;;3.70;;
69629;SDS011;56857;52.212;5.496;2022-12-20T02:03:48;7.03;;;3.53;;
69629;SDS011;56857;52.212;5.496;2022-12-20T02:06:17;8.13;;;3.95;;
69629;SDS011;56857;52.212;5.496;2022-12-20T02:08:46;8.05;;;4.00;;
69629;SDS011;56857;52.212;5.496;2022-12-20T02:14:00;7.28;;;3.70;;
69629;SDS011;56857;52.212;5.496;2022-12-20T02:16:54;8.10;;;3.85;;
69629;SDS011;56857;52.212;5.496;2022-12-20T02:30:51;7.68;;;4.20;;
69629;SDS011;56857;52.212;5.496;2022-12-20T02:33:20;8.77;;;3.65;;
69629;SDS011;56857;52.212;5.496;2022-12-20T02:35:49;8.95;;;3.97;;
69629;SDS011;56857;52.212;5.496;2022-12-20T02:38:28;9.20;;;3.88;;
69629;SDS011;56857;52.212;5.496;2022-12-20T02:40:57;7.57;;;3.83;;
69629;SDS011;56857;52.212;5.496;2022-12-20T02:43:26;7.43;;;3.53;;
69629;SDS011;56857;52.212;5.496;2022-12-20T02:45:56;8.85;;;4.10;;
69629;SDS011;56857;52.212;5.496;2022-12-20T02:48:24;10.45;;;4.32;;
69629;SDS011;56857;52.212;5.496;2022-12-20T02:50:55;8.00;;;3.85;;
69629;SDS011;56857;52.212;5.496;2022-12-20T02:53:24;7.88;;;3.83;;
69629;SDS011;56857;52.212;5.496;2022-12-20T03:01:18;6.82;;;3.85;;
69629;SDS011;56857;52.212;5.496;2022-12-20T03:03:56;8.73;;;3.70;;
69629;SDS011;56857;52.212;5.496;2022-12-20T03:06:23;9.60;;;4.07;;
69629;SDS011;56857;52.212;5.496;2022-12-20T03:08:49;9.27;;;4.00;;
69629;SDS011;56857;52.212;5.496;2022-12-20T03:11:15;14.05;;;4.22;;
69629;SDS011;56857;52.212;5.496;2022-12-20T03:13:41;8.23;;;3.67;;
69629;SDS011;56857;52.212;5.496;2022-12-20T03:16:07;6.50;;;3.53;;
69629;SDS011;56857;52.212;5.496;2022-12-20T03:18:34;9.18;;;4.00;;
69629;SDS011;56857;52.212;5.496;2022-12-20T03:20:59;6.97;;;3.72;;
69629;SDS011;56857;52.212;5.496;2022-12-20T03:23:26;11.05;;;3.70;;
69629;SDS011;56857;52.212;5.496;2022-12-20T03:25:51;8.43;;;4.32;;
69629;SDS011;56857;52.212;5.496;2022-12-20T03:28:17;7.88;;;3.80;;
69629;SDS011;56857;52.212;5.496;2022-12-20T03:30:43;7.85;;;3.75;;
69629;SDS011;56857;52.212;5.496;2022-12-20T03:33:09;9.02;;;3.70;;
69629;SDS011;56857;52.212;5.496;2022-12-20T03:35:35;7.97;;;3.85;;
69629;SDS011;56857;52.212;5.496;2022-12-20T03:38:01;8.43;;;3.72;;
69629;SDS011;56857;52.212;5.496;2022-12-20T03:40:27;7.78;;;3.58;;
69629;SDS011;56857;52.212;5.496;2022-12-20T03:42:53;9.50;;;4.43;;
69629;SDS011;56857;52.212;5.496;2022-12-20T03:45:19;8.73;;;3.88;;
69629;SDS011;56857;52.212;5.496;2022-12-20T03:47:48;7.15;;;4.00;;
69629;SDS011;56857;52.212;5.496;2022-12-20T03:50:14;6.88;;;3.50;;
69629;SDS011;56857;52.212;5.496;2022-12-20T03:52:40;7.57;;;3.70;;
69629;SDS011;56857;52.212;5.496;2022-12-20T03:55:07;10.40;;;3.80;;
69629;SDS011;56857;52.212;5.496;2022-12-20T03:57:33;8.32;;;3.60;;
69629;SDS011;56857;52.212;5.496;2022-12-20T03:59:59;9.70;;;4.13;;
69629;SDS011;56857;52.212;5.496;2022-12-20T04:02:25;15.40;;;3.95;;
69629;SDS011;56857;52.212;5.496;2022-12-20T04:04:51;7.72;;;3.35;;
69629;SDS011;56857;52.212;5.496;2022-12-20T04:07:17;9.20;;;3.92;;
69629;SDS011;56857;52.212;5.496;2022-12-20T04:09:43;8.10;;;3.80;;
69629;SDS011;56857;52.212;5.496;2022-12-20T04:12:09;9.10;;;3.65;;
69629;SDS011;56857;52.212;5.496;2022-12-20T04:14:34;8.25;;;3.42;;
69629;SDS011;56857;52.212;5.496;2022-12-20T04:17:00;8.10;;;3.42;;
69629;SDS011;56857;52.212;5.496;2022-12-20T04:19:26;7.25;;;4.13;;
69629;SDS011;56857;52.212;5.496;2022-12-20T04:21:52;8.85;;;3.72;;
69629;SDS011;56857;52.212;5.496;2022-12-20T04:24:21;7.40;;;3.92;;
69629;SDS011;56857;52.212;5.496;2022-12-20T04:26:47;7.35;;;3.53;;
69629;SDS011;56857;52.212;5.496;2022-12-20T04:29:12;9.70;;;3.95;;
69629;SDS011;56857;52.212;5.496;2022-12-20T04:31:38;6.88;;;3.25;;
69629;SDS011;56857;52.212;5.496;2022-12-20T04:34:04;9.52;;;3.70;;
69629;SDS011;56857;52.212;5.496;2022-12-20T04:36:30;7.90;;;3.55;;
69629;SDS011;56857;52.212;5.496;2022-12-20T04:38:56;7.50;;;3.10;;
69629;SDS011;56857;52.212;5.496;2022-12-20T04:41:22;6.78;;;3.30;;
69629;SDS011;56857;52.212;5.496;2022-12-20T04:43:49;7.30;;;3.47;;
69629;SDS011;56857;52.212;5.496;2022-12-20T04:46:15;8.60;;;4.65;;
69629;SDS011;56857;52.212;5.496;2022-12-20T04:48:41;8.45;;;3.55;;
69629;SDS011;56857;52.212;5.496;2022-12-20T04:51:07;8.63;;;3.45;;
69629;SDS011;56857;52.212;5.496;2022-12-20T04:53:36;8.07;;;3.47;;
69629;SDS011;56857;52.212;5.496;2022-12-20T04:56:02;8.00;;;3.80;;
69629;SDS011;56857;52.212;5.496;2022-12-20T04:58:29;7.78;;;3.70;;
69629;SDS011;56857;52.212;5.496;2022-12-20T05:00:55;8.00;;;3.30;;
69629;SDS011;56857;52.212;5.496;2022-12-20T05:03:22;8.65;;;3.53;;
69629;SDS011;56857;52.212;5.496;2022-12-20T05:05:50;7.72;;;3.30;;
69629;SDS011;56857;52.212;5.496;2022-12-20T05:08:16;8.70;;;3.70;;
69629;SDS011;56857;52.212;5.496;2022-12-20T05:10:42;9.43;;;3.63;;
69629;SDS011;56857;52.212;5.496;2022-12-20T05:13:08;7.72;;;3.58;;
69629;SDS011;56857;52.212;5.496;2022-12-20T05:15:34;8.93;;;3.63;;
69629;SDS011;56857;52.212;5.496;2022-12-20T05:18:00;8.45;;;3.40;;
69629;SDS011;56857;52.212;5.496;2022-12-20T05:20:27;10.68;;;3.75;;
69629;SDS011;56857;52.212;5.496;2022-12-20T05:22:55;7.80;;;3.40;;
69629;SDS011;56857;52.212;5.496;2022-12-20T05:25:22;8.85;;;3.38;;
69629;SDS011;56857;52.212;5.496;2022-12-20T05:27:48;8.38;;;3.70;;
69629;SDS011;56857;52.212;5.496;2022-12-20T05:30:14;9.50;;;3.95;;
69629;SDS011;56857;52.212;5.496;2022-12-20T05:32:40;8.07;;;3.47;;
69629;SDS011;56857;52.212;5.496;2022-12-20T05:35:06;8.50;;;4.55;;
69629;SDS011;56857;52.212;5.496;2022-12-20T05:37:33;8.60;;;3.40;;
69629;SDS011;56857;52.212;5.496;2022-12-20T05:39:59;8.30;;;3.80;;
69629;SDS011;56857;52.212;5.496;2022-12-20T05:42:25;6.78;;;3.53;;
69629;SDS011;56857;52.212;5.496;2022-12-20T05:44:50;6.95;;;3.55;;
69629;SDS011;56857;52.212;5.496;2022-12-20T05:47:16;9.25;;;4.10;;
69629;SDS011;56857;52.212;5.496;2022-12-20T05:49:42;7.13;;;3.33;;
69629;SDS011;56857;52.212;5.496;2022-12-20T05:52:08;8.30;;;3.92;;
69629;SDS011;56857;52.212;5.496;2022-12-20T05:54:34;10.13;;;3.58;;
69629;SDS011;56857;52.212;5.496;2022-12-20T05:57:00;7.47;;;3.80;;
69629;SDS011;56857;52.212;5.496;2022-12-20T05:59:26;10.05;;;4.28;;
69629;SDS011;56857;52.212;5.496;2022-12-20T06:01:52;9.73;;;4.47;;
69629;SDS011;56857;52.212;5.496;2022-12-20T06:04:18;7.82;;;4.00;;
69629;SDS011;56857;52.212;5.496;2022-12-20T06:06:44;9.27;;;3.90;;
69629;SDS011;56857;52.212;5.496;2022-12-20T06:09:10;9.40;;;3.85;;
69629;SDS011;56857;52.212;5.496;2022-12-20T06:11:36;8.43;;;3.78;;
69629;SDS011;56857;52.212;5.496;2022-12-20T06:14:02;7.80;;;3.80;;
69629;SDS011;56857;52.212;5.496;2022-12-20T06:16:28;8.90;;;3.65;;
69629;SDS011;56857;52.212;5.496;2022-12-20T06:18:54;8.35;;;3.47;;
69629;SDS011;56857;52.212;5.496;2022-12-20T06:21:20;6.88;;;3.47;;
69629;SDS011;56857;52.212;5.496;2022-12-20T06:23:46;11.13;;;3.92;;
69629;SDS011;56857;52.212;5.496;2022-12-20T06:26:16;8.38;;;3.72;;
69629;SDS011;56857;52.212;5.496;2022-12-20T06:28:42;8.05;;;3.72;;
69629;SDS011;56857;52.212;5.496;2022-12-20T06:31:09;9.75;;;3.50;;
69629;SDS011;56857;52.212;5.496;2022-12-20T06:33:35;8.75;;;3.83;;
69629;SDS011;56857;52.212;5.496;2022-12-20T06:36:04;9.20;;;3.40;;
69629;SDS011;56857;52.212;5.496;2022-12-20T06:38:30;7.97;;;3.40;;
69629;SDS011;56857;52.212;5.496;2022-12-20T06:40:56;6.75;;;3.53;;
69629;SDS011;56857;52.212;5.496;2022-12-20T06:43:22;8.02;;;3.50;;
69629;SDS011;56857;52.212;5.496;2022-12-20T06:45:53;6.72;;;3.25;;
69629;SDS011;56857;52.212;5.496;2022-12-20T06:48:21;8.13;;;3.83;;
69629;SDS011;56857;52.212;5.496;2022-12-20T06:50:50;7.68;;;3.83;;
69629;SDS011;56857;52.212;5.496;2022-12-20T06:53:20;9.00;;;3.28;;
69629;SDS011;56857;52.212;5.496;2022-12-20T06:55:46;7.43;;;3.70;;
69629;SDS011;56857;52.212;5.496;2022-12-20T06:58:12;7.93;;;3.50;;
69629;SDS011;56857;52.212;5.496;2022-12-20T07:00:41;7.57;;;3.22;;
69629;SDS011;56857;52.212;5.496;2022-12-20T07:03:07;10.32;;;3.38;;
69629;SDS011;56857;52.212;5.496;2022-12-20T07:05:33;7.38;;;3.30;;
69629;SDS011;56857;52.212;5.496;2022-12-20T07:07:59;7.60;;;2.70;;
69629;SDS011;56857;52.212;5.496;2022-12-20T07:10:25;7.45;;;2.88;;
69629;SDS011;56857;52.212;5.496;2022-12-20T07:12:51;7.68;;;3.20;;
69629;SDS011;56857;52.212;5.496;2022-12-20T07:15:17;5.75;;;2.90;;
69629;SDS011;56857;52.212;5.496;2022-12-20T07:17:43;7.05;;;3.38;;
69629;SDS011;56857;52.212;5.496;2022-12-20T07:20:09;7.07;;;3.22;;
69629;SDS011;56857;52.212;5.496;2022-12-20T07:22:36;7.68;;;3.20;;
69629;SDS011;56857;52.212;5.496;2022-12-20T07:25:02;8.45;;;3.30;;
69629;SDS011;56857;52.212;5.496;2022-12-20T07:27:27;7.20;;;2.90;;
69629;SDS011;56857;52.212;5.496;2022-12-20T07:29:53;7.53;;;3.10;;
69629;SDS011;56857;52.212;5.496;2022-12-20T07:32:19;6.95;;;2.92;;
69629;SDS011;56857;52.212;5.496;2022-12-20T07:34:45;9.65;;;3.30;;
69629;SDS011;56857;52.212;5.496;2022-12-20T07:37:11;6.68;;;2.97;;
69629;SDS011;56857;52.212;5.496;2022-12-20T07:39:37;6.88;;;2.95;;
69629;SDS011;56857;52.212;5.496;2022-12-20T07:42:03;6.90;;;3.08;;
69629;SDS011;56857;52.212;5.496;2022-12-20T07:44:29;6.40;;;3.08;;
69629;SDS011;56857;52.212;5.496;2022-12-20T07:46:55;7.38;;;2.88;;
69629;SDS011;56857;52.212;5.496;2022-12-20T07:49:21;6.43;;;2.65;;
69629;SDS011;56857;52.212;5.496;2022-12-20T07:51:50;8.32;;;3.03;;
69629;SDS011;56857;52.212;5.496;2022-12-20T07:54:22;7.32;;;2.70;;
69629;SDS011;56857;52.212;5.496;2022-12-20T07:56:55;7.38;;;2.90;;
69629;SDS011;56857;52.212;5.496;2022-12-20T07:59:30;7.63;;;2.80;;
69629;SDS011;56857;52.212;5.496;2022-12-20T08:02:04;7.32;;;2.97;;
69629;SDS011;56857;52.212;5.496;2022-12-20T08:04:30;6.85;;;3.05;;
69629;SDS011;56857;52.212;5.496;2022-12-20T08:06:59;6.38;;;3.10;;
69629;SDS011;56857;52.212;5.496;2022-12-20T08:09:27;8.32;;;2.63;;
69629;SDS011;56857;52.212;5.496;2022-12-20T08:11:55;8.55;;;3.30;;
69629;SDS011;56857;52.212;5.496;2022-12-20T08:14:22;5.72;;;2.83;;
69629;SDS011;56857;52.212;5.496;2022-12-20T08:16:49;8.90;;;3.25;;
69629;SDS011;56857;52.212;5.496;2022-12-20T08:19:15;6.13;;;2.72;;
69629;SDS011;56857;52.212;5.496;2022-12-20T08:21:40;8.77;;;2.88;;
69629;SDS011;56857;52.212;5.496;2022-12-20T08:24:06;7.38;;;2.80;;
69629;SDS011;56857;52.212;5.496;2022-12-20T08:26:36;7.45;;;2.90;;
69629;SDS011;56857;52.212;5.496;2022-12-20T08:29:05;7.25;;;3.03;;
69629;SDS011;56857;52.212;5.496;2022-12-20T08:31:31;7.95;;;3.30;;
69629;SDS011;56857;52.212;5.496;2022-12-20T08:33:57;8.55;;;2.72;;
69629;SDS011;56857;52.212;5.496;2022-12-20T08:36:23;9.25;;;3.35;;
69629;SDS011;56857;52.212;5.496;2022-12-20T08:38:49;5.60;;;2.67;;
69629;SDS011;56857;52.212;5.496;2022-12-20T08:41:15;7.65;;;2.70;;
69629;SDS011;56857;52.212;5.496;2022-12-20T08:43:41;6.30;;;2.60;;
69629;SDS011;56857;52.212;5.496;2022-12-20T08:46:08;9.10;;;2.67;;
69629;SDS011;56857;52.212;5.496;2022-12-20T08:48:35;6.53;;;2.80;;
69629;SDS011;56857;52.212;5.496;2022-12-20T08:51:02;6.50;;;2.38;;
69629;SDS011;56857;52.212;5.496;2022-12-20T08:53:30;5.60;;;2.70;;
69629;SDS011;56857;52.212;5.496;2022-12-20T08:58:29;7.78;;;2.70;;
69629;SDS011;56857;52.212;5.496;2022-12-20T09:00:57;6.47;;;3.00;;
69629;SDS011;56857;52.212;5.496;2022-12-20T09:03:23;7.93;;;2.80;;
69629;SDS011;56857;52.212;5.496;2022-12-20T09:05:51;6.63;;;2.53;;
69629;SDS011;56857;52.212;5.496;2022-12-20T09:08:19;7.20;;;2.80;;
69629;SDS011;56857;52.212;5.496;2022-12-20T09:10:45;7.78;;;2.60;;
69629;SDS011;56857;52.212;5.496;2022-12-20T09:13:11;7.25;;;2.35;;
69629;SDS011;56857;52.212;5.496;2022-12-20T09:15:38;7.68;;;2.83;;
69629;SDS011;56857;52.212;5.496;2022-12-20T09:18:06;6.88;;;2.90;;
69629;SDS011;56857;52.212;5.496;2022-12-20T09:20:35;5.88;;;2.60;;
69629;SDS011;56857;52.212;5.496;2022-12-20T09:23:02;10.55;;;3.10;;
69629;SDS011;56857;52.212;5.496;2022-12-20T09:25:28;8.50;;;2.85;;
69629;SDS011;56857;52.212;5.496;2022-12-20T09:27:54;7.35;;;2.88;;
69629;SDS011;56857;52.212;5.496;2022-12-20T09:30:20;7.63;;;2.70;;
69629;SDS011;56857;52.212;5.496;2022-12-20T09:32:53;7.38;;;3.33;;
69629;SDS011;56857;52.212;5.496;2022-12-20T09:35:19;8.45;;;3.60;;
69629;SDS011;56857;52.212;5.496;2022-12-20T09:37:47;8.90;;;3.00;;
69629;SDS011;56857;52.212;5.496;2022-12-20T09:40:21;7.90;;;2.65;;
69629;SDS011;56857;52.212;5.496;2022-12-20T09:42:51;8.98;;;2.75;;
69629;SDS011;56857;52.212;5.496;2022-12-20T09:45:19;8.05;;;2.75;;
69629;SDS011;56857;52.212;5.496;2022-12-20T09:47:52;8.10;;;3.10;;
69629;SDS011;56857;52.212;5.496;2022-12-20T09:50:19;9.52;;;3.78;;
69629;SDS011;56857;52.212;5.496;2022-12-20T09:55:40;6.45;;;2.70;;
69629;SDS011;56857;52.212;5.496;2022-12-20T09:58:17;7.75;;;2.97;;
69629;SDS011;56857;52.212;5.496;2022-12-20T10:00:47;7.75;;;3.20;;
69629;SDS011;56857;52.212;5.496;2022-12-20T10:03:31;7.30;;;3.20;;
69629;SDS011;56857;52.212;5.496;2022-12-20T10:14:27;7.90;;;3.17;;
69629;SDS011;56857;52.212;5.496;2022-12-20T10:17:04;7.57;;;3.13;;
69629;SDS011;56857;52.212;5.496;2022-12-20T10:19:59;7.82;;;3.28;;
69629;SDS011;56857;52.212;5.496;2022-12-20T10:28:00;6.18;;;2.97;;
69629;SDS011;56857;52.212;5.496;2022-12-20T10:30:32;6.45;;;3.33;;
69629;SDS011;56857;52.212;5.496;2022-12-20T10:33:22;7.40;;;3.17;;
69629;SDS011;56857;52.212;5.496;2022-12-20T10:36:25;6.63;;;2.92;;
69629;SDS011;56857;52.212;5.496;2022-12-20T10:39:00;7.78;;;3.47;;
69629;SDS011;56857;52.212;5.496;2022-12-20T10:44:28;7.03;;;3.20;;
69629;SDS011;56857;52.212;5.496;2022-12-20T10:47:20;8.30;;;2.95;;
69629;SDS011;56857;52.212;5.496;2022-12-20T10:50:20;9.25;;;2.92;;
69629;SDS011;56857;52.212;5.496;2022-12-20T10:55:36;7.28;;;3.25;;
69629;SDS011;56857;52.212;5.496;2022-12-20T10:58:20;7.18;;;3.40;;
69629;SDS011;56857;52.212;5.496;2022-12-20T11:06:48;9.68;;;3.53;;
69629;SDS011;56857;52.212;5.496;2022-12-20T11:09:33;7.38;;;3.42;;
69629;SDS011;56857;52.212;5.496;2022-12-20T11:12:04;9.13;;;3.45;;
69629;SDS011;56857;52.212;5.496;2022-12-20T11:14:44;9.82;;;3.50;;
69629;SDS011;56857;52.212;5.496;2022-12-20T11:17:35;5.78;;;3.00;;
69629;SDS011;56857;52.212;5.496;2022-12-20T11:20:24;7.43;;;3.35;;
69629;SDS011;56857;52.212;5.496;2022-12-20T11:23:49;6.75;;;3.17;;
69629;SDS011;56857;52.212;5.496;2022-12-20T11:30:12;8.07;;;3.70;;
69629;SDS011;56857;52.212;5.496;2022-12-20T11:35:26;8.07;;;3.80;;
69629;SDS011;56857;52.212;5.496;2022-12-20T11:41:18;8.70;;;3.85;;
69629;SDS011;56857;52.212;5.496;2022-12-20T11:52:27;8.20;;;3.88;;
69629;SDS011;56857;52.212;5.496;2022-12-20T11:57:53;9.75;;;4.32;;
69629;SDS011;56857;52.212;5.496;2022-12-20T12:03:17;9.98;;;4.15;;
69629;SDS011;56857;52.212;5.496;2022-12-20T12:06:22;8.00;;;4.50;;
69629;SDS011;56857;52.212;5.496;2022-12-20T12:12:13;8.77;;;4.60;;
69629;SDS011;56857;52.212;5.496;2022-12-20T12:15:17;9.80;;;4.65;;
69629;SDS011;56857;52.212;5.496;2022-12-20T12:18:21;9.30;;;4.68;;
69629;SDS011;56857;52.212;5.496;2022-12-20T12:21:23;7.88;;;4.25;;
69629;SDS011;56857;52.212;5.496;2022-12-20T12:26:34;10.88;;;5.10;;
69629;SDS011;56857;52.212;5.496;2022-12-20T12:29:08;9.68;;;5.00;;
69629;SDS011;56857;52.212;5.496;2022-12-20T12:31:41;8.75;;;5.10;;
69629;SDS011;56857;52.212;5.496;2022-12-20T12:34:29;7.60;;;4.45;;
69629;SDS011;56857;52.212;5.496;2022-12-20T12:45:39;11.52;;;4.90;;
69629;SDS011;56857;52.212;5.496;2022-12-20T12:48:36;8.95;;;5.15;;
69629;SDS011;56857;52.212;5.496;2022-12-20T12:51:20;8.48;;;4.35;;
69629;SDS011;56857;52.212;5.496;2022-12-20T12:54:44;8.98;;;4.72;;
69629;SDS011;56857;52.212;5.496;2022-12-20T13:00:53;10.68;;;5.55;;
69629;SDS011;56857;52.212;5.496;2022-12-20T13:09:17;9.48;;;5.32;;
69629;SDS011;56857;52.212;5.496;2022-12-20T13:17:52;9.02;;;4.90;;
69629;SDS011;56857;52.212;5.496;2022-12-20T13:20:43;10.18;;;5.53;;
69629;SDS011;56857;52.212;5.496;2022-12-20T13:23:59;7.75;;;5.13;;
69629;SDS011;56857;52.212;5.496;2022-12-20T13:26:55;9.23;;;5.25;;
69629;SDS011;56857;52.212;5.496;2022-12-20T13:29:26;10.77;;;5.28;;
69629;SDS011;56857;52.212;5.496;2022-12-20T13:31:59;9.82;;;5.30;;
69629;SDS011;56857;52.212;5.496;2022-12-20T13:34:35;10.55;;;5.85;;
69629;SDS011;56857;52.212;5.496;2022-12-20T13:51:17;9.77;;;5.15;;
69629;SDS011;56857;52.212;5.496;2022-12-20T13:54:14;9.38;;;5.68;;
69629;SDS011;56857;52.212;5.496;2022-12-20T13:57:04;9.70;;;5.90;;
69629;SDS011;56857;52.212;5.496;2022-12-20T13:59:34;10.50;;;5.38;;
69629;SDS011;56857;52.212;5.496;2022-12-20T14:02:15;8.05;;;4.97;;
69629;SDS011;56857;52.212;5.496;2022-12-20T14:04:59;10.40;;;5.40;;
69629;SDS011;56857;52.212;5.496;2022-12-20T14:07:33;7.93;;;5.28;;
69629;SDS011;56857;52.212;5.496;2022-12-20T14:10:15;10.32;;;5.57;;
69629;SDS011;56857;52.212;5.496;2022-12-20T14:12:46;8.40;;;5.35;;
69629;SDS011;56857;52.212;5.496;2022-12-20T14:15:31;9.45;;;5.43;;
69629;SDS011;56857;52.212;5.496;2022-12-20T14:33:40;7.80;;;5.00;;
69629;SDS011;56857;52.212;5.496;2022-12-20T14:36:48;9.35;;;5.55;;
69629;SDS011;56857;52.212;5.496;2022-12-20T14:41:58;9.48;;;5.55;;
69629;SDS011;56857;52.212;5.496;2022-12-20T14:44:46;9.65;;;5.70;;
69629;SDS011;56857;52.212;5.496;2022-12-20T14:50:04;8.35;;;5.60;;
69629;SDS011;56857;52.212;5.496;2022-12-20T14:53:17;10.15;;;5.97;;
69629;SDS011;56857;52.212;5.496;2022-12-20T14:55:49;8.10;;;5.95;;
69629;SDS011;56857;52.212;5.496;2022-12-20T15:05:06;9.23;;;5.88;;
69629;SDS011;56857;52.212;5.496;2022-12-20T15:07:54;8.85;;;5.63;;
69629;SDS011;56857;52.212;5.496;2022-12-20T15:10:20;9.68;;;6.40;;
69629;SDS011;56857;52.212;5.496;2022-12-20T15:12:48;8.85;;;6.45;;
69629;SDS011;56857;52.212;5.496;2022-12-20T15:15:17;10.10;;;6.05;;
69629;SDS011;56857;52.212;5.496;2022-12-20T15:17:46;9.27;;;6.20;;
69629;SDS011;56857;52.212;5.496;2022-12-20T15:20:13;10.15;;;6.50;;
69629;SDS011;56857;52.212;5.496;2022-12-20T15:22:42;10.95;;;6.93;;
69629;SDS011;56857;52.212;5.496;2022-12-20T15:25:14;11.02;;;7.10;;
69629;SDS011;56857;52.212;5.496;2022-12-20T15:27:44;12.05;;;7.22;;
69629;SDS011;56857;52.212;5.496;2022-12-20T15:30:12;10.15;;;7.65;;
69629;SDS011;56857;52.212;5.496;2022-12-20T15:32:38;11.32;;;7.40;;
69629;SDS011;56857;52.212;5.496;2022-12-20T15:35:12;11.45;;;7.95;;
69629;SDS011;56857;52.212;5.496;2022-12-20T15:37:43;11.93;;;7.15;;
69629;SDS011;56857;52.212;5.496;2022-12-20T15:40:20;13.40;;;7.90;;
69629;SDS011;56857;52.212;5.496;2022-12-20T15:42:49;12.02;;;8.05;;
69629;SDS011;56857;52.212;5.496;2022-12-20T15:45:18;12.57;;;8.38;;
69629;SDS011;56857;52.212;5.496;2022-12-20T15:47:45;14.57;;;8.32;;
69629;SDS011;56857;52.212;5.496;2022-12-20T15:50:14;13.10;;;8.10;;
69629;SDS011;56857;52.212;5.496;2022-12-20T15:52:40;12.52;;;8.20;;
69629;SDS011;56857;52.212;5.496;2022-12-20T15:55:08;12.43;;;8.25;;
69629;SDS011;56857;52.212;5.496;2022-12-20T15:57:35;11.57;;;8.20;;
69629;SDS011;56857;52.212;5.496;2022-12-20T16:00:01;13.02;;;8.35;;
69629;SDS011;56857;52.212;5.496;2022-12-20T16:02:31;12.77;;;8.82;;
69629;SDS011;56857;52.212;5.496;2022-12-20T16:05:00;14.23;;;9.10;;
69629;SDS011;56857;52.212;5.496;2022-12-20T16:07:32;13.02;;;9.52;;
69629;SDS011;56857;52.212;5.496;2022-12-20T16:09:58;13.77;;;9.68;;
69629;SDS011;56857;52.212;5.496;2022-12-20T16:12:28;14.05;;;9.70;;
69629;SDS011;56857;52.212;5.496;2022-12-20T16:15:00;14.90;;;9.10;;
69629;SDS011;56857;52.212;5.496;2022-12-20T16:17:29;12.00;;;8.70;;
69629;SDS011;56857;52.212;5.496;2022-12-20T16:19:55;13.32;;;9.80;;
69629;SDS011;56857;52.212;5.496;2022-12-20T16:22:24;16.05;;;10.38;;
69629;SDS011;56857;52.212;5.496;2022-12-20T16:24:53;15.20;;;10.18;;
69629;SDS011;56857;52.212;5.496;2022-12-20T16:27:23;17.65;;;9.98;;
69629;SDS011;56857;52.212;5.496;2022-12-20T16:29:51;14.18;;;9.60;;
69629;SDS011;56857;52.212;5.496;2022-12-20T16:32:18;12.85;;;9.10;;
69629;SDS011;56857;52.212;5.496;2022-12-20T16:34:48;14.80;;;9.98;;
69629;SDS011;56857;52.212;5.496;2022-12-20T16:37:18;14.93;;;9.55;;
69629;SDS011;56857;52.212;5.496;2022-12-20T16:39:43;13.75;;;9.57;;
69629;SDS011;56857;52.212;5.496;2022-12-20T16:42:13;15.52;;;10.27;;
69629;SDS011;56857;52.212;5.496;2022-12-20T16:44:42;14.68;;;10.10;;
69629;SDS011;56857;52.212;5.496;2022-12-20T16:47:12;14.80;;;9.85;;
69629;SDS011;56857;52.212;5.496;2022-12-20T16:49:41;15.77;;;9.65;;
69629;SDS011;56857;52.212;5.496;2022-12-20T16:52:13;16.52;;;10.18;;
69629;SDS011;56857;52.212;5.496;2022-12-20T16:54:42;15.40;;;10.18;;
69629;SDS011;56857;52.212;5.496;2022-12-20T16:57:08;14.02;;;9.70;;
69629;SDS011;56857;52.212;5.496;2022-12-20T16:59:34;14.82;;;9.82;;
69629;SDS011;56857;52.212;5.496;2022-12-20T17:02:00;17.02;;;10.27;;
69629;SDS011;56857;52.212;5.496;2022-12-20T17:04:29;14.48;;;9.32;;
69629;SDS011;56857;52.212;5.496;2022-12-20T17:06:54;14.40;;;10.40;;
69629;SDS011;56857;52.212;5.496;2022-12-20T17:09:20;13.73;;;9.15;;
69629;SDS011;56857;52.212;5.496;2022-12-20T17:11:46;14.07;;;10.10;;
69629;SDS011;56857;52.212;5.496;2022-12-20T17:14:12;15.93;;;9.68;;
69629;SDS011;56857;52.212;5.496;2022-12-20T17:16:41;14.23;;;9.65;;
69629;SDS011;56857;52.212;5.496;2022-12-20T17:19:08;13.82;;;8.77;;
69629;SDS011;56857;52.212;5.496;2022-12-20T17:21:35;14.73;;;9.02;;
69629;SDS011;56857;52.212;5.496;2022-12-20T17:24:03;12.85;;;9.15;;
69629;SDS011;56857;52.212;5.496;2022-12-20T17:26:30;12.65;;;9.25;;
69629;SDS011;56857;52.212;5.496;2022-12-20T17:29:00;14.77;;;9.65;;
69629;SDS011;56857;52.212;5.496;2022-12-20T17:31:30;15.18;;;9.50;;
69629;SDS011;56857;52.212;5.496;2022-12-20T17:34:01;15.07;;;9.95;;